sensor_id;sensor_type;location;lat;lon;timestamp;pressure;altitude;pressure_sealevel;temperature;humidity
58072;BME280;60383;46.626;18.866;2023-04-01T00:02:06;99111.72;;;10.98;87.95
58072;BME280;60383;46.626;18.866;2023-04-01T00:04:32;99120.16;;;10.96;88.33
58072;BME280;60383;46.626;18.866;2023-04-01T00:06:58;99122.00;;;10.96;88.39
58072;BME280;60383;46.626;18.866;2023-04-01T00:09:24;99129.03;;;10.83;88.26
58072;BME280;60383;46.626;18.866;2023-04-01T00:11:50;99138.50;;;10.66;89.41
58072;BME280;60383;46.626;18.866;2023-04-01T00:14:15;99143.41;;;10.70;89.18
58072;BME280;60383;46.626;18.866;2023-04-01T00:16:41;99141.22;;;10.51;89.43
58072;BME280;60383;46.626;18.866;2023-04-01T00:19:06;99155.69;;;10.60;90.03
58072;BME280;60383;46.626;18.866;2023-04-01T00:21:32;99156.91;;;10.57;90.21
58072;BME280;60383;46.626;18.866;2023-04-01T00:23:57;99141.91;;;10.53;90.71
58072;BME280;60383;46.626;18.866;2023-04-01T00:26:24;99144.44;;;10.54;90.79
58072;BME280;60383;46.626;18.866;2023-04-01T00:28:50;99135.38;;;10.39;91.09
58072;BME280;60383;46.626;18.866;2023-04-01T00:31:16;99145.97;;;10.57;90.84
58072;BME280;60383;46.626;18.866;2023-04-01T00:33:42;99153.31;;;10.42;92.01
58072;BME280;60383;46.626;18.866;2023-04-01T00:36:09;99143.13;;;10.50;91.59
58072;BME280;60383;46.626;18.866;2023-04-01T00:38:35;99145.88;;;10.50;91.00
58072;BME280;60383;46.626;18.866;2023-04-01T00:41:01;99134.34;;;10.55;90.85
58072;BME280;60383;46.626;18.866;2023-04-01T00:43:26;99125.66;;;10.51;91.28
58072;BME280;60383;46.626;18.866;2023-04-01T00:45:52;99121.59;;;10.47;92.32
58072;BME280;60383;46.626;18.866;2023-04-01T00:48:20;99129.53;;;10.42;92.26
58072;BME280;60383;46.626;18.866;2023-04-01T00:51:26;99132.72;;;10.46;92.87
58072;BME280;60383;46.626;18.866;2023-04-01T00:53:55;99126.31;;;10.38;92.46
58072;BME280;60383;46.626;18.866;2023-04-01T00:56:40;99127.91;;;10.33;93.46
58072;BME280;60383;46.626;18.866;2023-04-01T00:59:13;99126.38;;;10.30;94.01
58072;BME280;60383;46.626;18.866;2023-04-01T01:01:40;99118.38;;;10.44;93.11
58072;BME280;60383;46.626;18.866;2023-04-01T01:04:05;99115.94;;;10.49;92.09
58072;BME280;60383;46.626;18.866;2023-04-01T01:06:37;99121.03;;;10.52;91.34
58072;BME280;60383;46.626;18.866;2023-04-01T01:12:01;99116.88;;;10.71;90.56
58072;BME280;60383;46.626;18.866;2023-04-01T01:20:33;99122.72;;;10.68;91.03
58072;BME280;60383;46.626;18.866;2023-04-01T01:37:02;99096.31;;;10.45;90.72
58072;BME280;60383;46.626;18.866;2023-04-01T01:39:33;99107.34;;;10.37;91.19
58072;BME280;60383;46.626;18.866;2023-04-01T01:42:04;99099.13;;;10.37;90.54
58072;BME280;60383;46.626;18.866;2023-04-01T01:44:31;99102.81;;;10.44;90.03
58072;BME280;60383;46.626;18.866;2023-04-01T01:46:58;99106.22;;;10.46;89.81
58072;BME280;60383;46.626;18.866;2023-04-01T01:49:25;99111.31;;;10.49;89.94
58072;BME280;60383;46.626;18.866;2023-04-01T01:51:52;99107.25;;;10.60;89.05
58072;BME280;60383;46.626;18.866;2023-04-01T01:54:18;99120.38;;;10.65;89.14
58072;BME280;60383;46.626;18.866;2023-04-01T01:56:47;99115.00;;;10.57;88.78
58072;BME280;60383;46.626;18.866;2023-04-01T01:59:15;99114.50;;;10.68;88.30
58072;BME280;60383;46.626;18.866;2023-04-01T02:01:45;99118.94;;;10.69;88.23
58072;BME280;60383;46.626;18.866;2023-04-01T02:04:13;99116.94;;;10.78;87.76
58072;BME280;60383;46.626;18.866;2023-04-01T02:06:44;99109.13;;;10.75;87.71
58072;BME280;60383;46.626;18.866;2023-04-01T02:09:13;99107.31;;;10.82;86.84
58072;BME280;60383;46.626;18.866;2023-04-01T02:11:52;99114.03;;;10.79;86.89
58072;BME280;60383;46.626;18.866;2023-04-01T02:14:22;99113.28;;;10.70;87.43
58072;BME280;60383;46.626;18.866;2023-04-01T02:17:04;99105.19;;;10.62;87.91
58072;BME280;60383;46.626;18.866;2023-04-01T02:19:39;99098.84;;;10.77;86.93
58072;BME280;60383;46.626;18.866;2023-04-01T02:22:10;99103.19;;;10.71;87.15
58072;BME280;60383;46.626;18.866;2023-04-01T02:24:36;99097.03;;;10.69;87.06
58072;BME280;60383;46.626;18.866;2023-04-01T02:27:03;99095.34;;;10.68;86.70
58072;BME280;60383;46.626;18.866;2023-04-01T02:29:29;99091.41;;;10.70;86.73
58072;BME280;60383;46.626;18.866;2023-04-01T02:31:55;99103.94;;;10.65;86.13
58072;BME280;60383;46.626;18.866;2023-04-01T02:34:22;99103.28;;;10.63;86.41
58072;BME280;60383;46.626;18.866;2023-04-01T02:36:50;99096.09;;;10.62;86.04
58072;BME280;60383;46.626;18.866;2023-04-01T02:39:16;99092.59;;;10.68;86.31
58072;BME280;60383;46.626;18.866;2023-04-01T02:41:44;99089.69;;;10.69;86.23
58072;BME280;60383;46.626;18.866;2023-04-01T02:44:11;99092.03;;;10.73;85.61
58072;BME280;60383;46.626;18.866;2023-04-01T02:46:37;99102.59;;;10.61;85.43
58072;BME280;60383;46.626;18.866;2023-04-01T02:49:03;99105.34;;;10.76;84.58
58072;BME280;60383;46.626;18.866;2023-04-01T02:51:28;99108.66;;;10.71;84.93
58072;BME280;60383;46.626;18.866;2023-04-01T02:53:54;99100.72;;;10.76;84.92
58072;BME280;60383;46.626;18.866;2023-04-01T02:56:20;99100.44;;;10.71;84.92
58072;BME280;60383;46.626;18.866;2023-04-01T02:58:46;99108.09;;;10.76;85.10
58072;BME280;60383;46.626;18.866;2023-04-01T03:01:12;99100.59;;;10.84;84.08
58072;BME280;60383;46.626;18.866;2023-04-01T03:03:38;99103.53;;;10.83;84.10
58072;BME280;60383;46.626;18.866;2023-04-01T03:06:08;99108.34;;;10.81;84.65
58072;BME280;60383;46.626;18.866;2023-04-01T03:08:34;99116.66;;;10.73;84.91
58072;BME280;60383;46.626;18.866;2023-04-01T03:11:00;99116.03;;;10.70;85.46
58072;BME280;60383;46.626;18.866;2023-04-01T03:13:26;99117.59;;;10.80;84.90
58072;BME280;60383;46.626;18.866;2023-04-01T03:15:52;99110.75;;;10.54;84.98
58072;BME280;60383;46.626;18.866;2023-04-01T03:18:18;99107.44;;;10.59;84.81
58072;BME280;60383;46.626;18.866;2023-04-01T03:20:44;99108.69;;;10.56;84.02
58072;BME280;60383;46.626;18.866;2023-04-01T03:23:09;99111.69;;;10.61;84.04
58072;BME280;60383;46.626;18.866;2023-04-01T03:25:35;99106.31;;;10.53;84.59
58072;BME280;60383;46.626;18.866;2023-04-01T03:28:00;99098.03;;;10.46;85.26
58072;BME280;60383;46.626;18.866;2023-04-01T03:30:26;99093.75;;;10.44;85.44
58072;BME280;60383;46.626;18.866;2023-04-01T03:32:52;99093.09;;;10.42;85.75
58072;BME280;60383;46.626;18.866;2023-04-01T03:35:18;99094.34;;;10.39;85.77
58072;BME280;60383;46.626;18.866;2023-04-01T03:37:43;99090.28;;;10.50;85.26
58072;BME280;60383;46.626;18.866;2023-04-01T03:40:10;99093.38;;;10.47;86.09
58072;BME280;60383;46.626;18.866;2023-04-01T03:42:35;99092.72;;;10.60;85.51
58072;BME280;60383;46.626;18.866;2023-04-01T03:45:01;99093.47;;;10.68;84.80
58072;BME280;60383;46.626;18.866;2023-04-01T03:47:27;99094.78;;;10.58;85.64
58072;BME280;60383;46.626;18.866;2023-04-01T03:49:53;99096.50;;;10.59;85.61
58072;BME280;60383;46.626;18.866;2023-04-01T03:52:19;99084.50;;;10.60;86.03
58072;BME280;60383;46.626;18.866;2023-04-01T03:54:44;99076.63;;;10.71;85.42
58072;BME280;60383;46.626;18.866;2023-04-01T03:57:10;99078.19;;;10.44;86.41
58072;BME280;60383;46.626;18.866;2023-04-01T03:59:35;99080.06;;;10.44;86.85
58072;BME280;60383;46.626;18.866;2023-04-01T04:02:01;99079.03;;;10.60;86.61
58072;BME280;60383;46.626;18.866;2023-04-01T04:04:27;99080.63;;;10.54;86.40
58072;BME280;60383;46.626;18.866;2023-04-01T04:06:53;99084.34;;;10.46;87.46
58072;BME280;60383;46.626;18.866;2023-04-01T04:09:18;99084.13;;;10.48;87.12
58072;BME280;60383;46.626;18.866;2023-04-01T04:11:44;99085.06;;;10.55;86.71
58072;BME280;60383;46.626;18.866;2023-04-01T04:14:09;99093.09;;;10.57;87.04
58072;BME280;60383;46.626;18.866;2023-04-01T04:16:35;99084.88;;;10.57;86.79
58072;BME280;60383;46.626;18.866;2023-04-01T04:19:04;99078.72;;;10.54;86.83
58072;BME280;60383;46.626;18.866;2023-04-01T04:21:30;99074.78;;;10.57;86.90
58072;BME280;60383;46.626;18.866;2023-04-01T04:23:56;99069.31;;;10.57;87.16
58072;BME280;60383;46.626;18.866;2023-04-01T04:26:21;99066.22;;;10.45;87.67
58072;BME280;60383;46.626;18.866;2023-04-01T04:28:46;99072.44;;;10.54;87.67
58072;BME280;60383;46.626;18.866;2023-04-01T04:31:19;99073.25;;;10.54;87.39
58072;BME280;60383;46.626;18.866;2023-04-01T04:33:45;99077.63;;;10.49;87.41
58072;BME280;60383;46.626;18.866;2023-04-01T04:36:11;99082.16;;;10.42;87.60
58072;BME280;60383;46.626;18.866;2023-04-01T04:38:36;99069.41;;;10.49;87.84
58072;BME280;60383;46.626;18.866;2023-04-01T04:41:02;99063.38;;;10.53;87.48
58072;BME280;60383;46.626;18.866;2023-04-01T04:43:27;99066.75;;;10.55;87.73
58072;BME280;60383;46.626;18.866;2023-04-01T04:45:53;99069.09;;;10.44;88.00
58072;BME280;60383;46.626;18.866;2023-04-01T04:48:18;99082.69;;;10.52;87.99
58072;BME280;60383;46.626;18.866;2023-04-01T04:50:49;99080.44;;;10.55;87.49
58072;BME280;60383;46.626;18.866;2023-04-01T04:53:17;99092.34;;;10.48;87.85
58072;BME280;60383;46.626;18.866;2023-04-01T04:55:48;99072.22;;;10.55;87.86
58072;BME280;60383;46.626;18.866;2023-04-01T04:58:14;99075.22;;;10.61;87.73
58072;BME280;60383;46.626;18.866;2023-04-01T05:00:41;99084.00;;;10.71;87.39
58072;BME280;60383;46.626;18.866;2023-04-01T05:03:06;99079.28;;;10.80;86.29
58072;BME280;60383;46.626;18.866;2023-04-01T05:05:32;99086.66;;;10.79;85.94
58072;BME280;60383;46.626;18.866;2023-04-01T05:07:57;99082.88;;;10.80;86.19
58072;BME280;60383;46.626;18.866;2023-04-01T05:10:23;99087.31;;;10.66;86.65
58072;BME280;60383;46.626;18.866;2023-04-01T05:12:49;99082.88;;;10.65;86.81
58072;BME280;60383;46.626;18.866;2023-04-01T05:15:14;99084.78;;;10.65;86.79
58072;BME280;60383;46.626;18.866;2023-04-01T05:17:40;99087.06;;;10.61;87.10
58072;BME280;60383;46.626;18.866;2023-04-01T05:20:06;99082.59;;;10.60;87.79
58072;BME280;60383;46.626;18.866;2023-04-01T05:22:32;99081.00;;;10.66;87.20
58072;BME280;60383;46.626;18.866;2023-04-01T05:24:58;99084.22;;;10.69;87.29
58072;BME280;60383;46.626;18.866;2023-04-01T05:27:23;99089.03;;;10.67;87.54
58072;BME280;60383;46.626;18.866;2023-04-01T05:29:49;99098.75;;;10.55;88.02
58072;BME280;60383;46.626;18.866;2023-04-01T05:32:14;99085.81;;;10.64;88.22
58072;BME280;60383;46.626;18.866;2023-04-01T05:34:40;99083.66;;;10.59;88.20
58072;BME280;60383;46.626;18.866;2023-04-01T05:37:06;99084.03;;;10.56;88.40
58072;BME280;60383;46.626;18.866;2023-04-01T05:39:38;99090.94;;;10.67;88.29
58072;BME280;60383;46.626;18.866;2023-04-01T05:42:06;99091.97;;;10.66;88.15
58072;BME280;60383;46.626;18.866;2023-04-01T05:44:32;99084.22;;;10.69;87.38
58072;BME280;60383;46.626;18.866;2023-04-01T05:46:58;99088.44;;;10.72;87.54
58072;BME280;60383;46.626;18.866;2023-04-01T05:49:23;99098.25;;;10.81;87.26
58072;BME280;60383;46.626;18.866;2023-04-01T05:51:49;99104.47;;;10.75;87.17
58072;BME280;60383;46.626;18.866;2023-04-01T05:54:14;99101.94;;;10.74;87.40
58072;BME280;60383;46.626;18.866;2023-04-01T05:56:40;99099.78;;;10.69;87.99
58072;BME280;60383;46.626;18.866;2023-04-01T05:59:05;99101.28;;;10.71;87.66
58072;BME280;60383;46.626;18.866;2023-04-01T06:01:31;99113.94;;;10.88;87.03
58072;BME280;60383;46.626;18.866;2023-04-01T06:03:56;99110.06;;;10.82;86.91
58072;BME280;60383;46.626;18.866;2023-04-01T06:06:27;99118.66;;;10.79;87.37
58072;BME280;60383;46.626;18.866;2023-04-01T06:08:56;99101.56;;;10.77;87.67
58072;BME280;60383;46.626;18.866;2023-04-01T06:11:35;99121.69;;;10.69;87.79
58072;BME280;60383;46.626;18.866;2023-04-01T06:42:03;99120.34;;;10.95;86.57
58072;BME280;60383;46.626;18.866;2023-04-01T06:54:10;99119.00;;;11.27;82.92
58072;BME280;60383;46.626;18.866;2023-04-01T06:56:21;99116.22;;;11.21;82.38
58072;BME280;60383;46.626;18.866;2023-04-01T06:58:53;99117.50;;;11.25;80.94
58072;BME280;60383;46.626;18.866;2023-04-01T07:01:24;99116.00;;;11.22;81.37
58072;BME280;60383;46.626;18.866;2023-04-01T07:04:01;99119.47;;;11.31;82.01
58072;BME280;60383;46.626;18.866;2023-04-01T07:06:38;99116.34;;;11.34;82.14
58072;BME280;60383;46.626;18.866;2023-04-01T07:09:37;99116.50;;;11.47;80.52
58072;BME280;60383;46.626;18.866;2023-04-01T07:12:04;99118.03;;;11.57;80.33
58072;BME280;60383;46.626;18.866;2023-04-01T07:14:36;99114.47;;;11.56;79.71
58072;BME280;60383;46.626;18.866;2023-04-01T07:19:45;99125.69;;;11.61;79.77
58072;BME280;60383;46.626;18.866;2023-04-01T07:22:56;99125.09;;;11.66;78.80
58072;BME280;60383;46.626;18.866;2023-04-01T07:25:17;99134.25;;;11.73;79.59
58072;BME280;60383;46.626;18.866;2023-04-01T07:27:44;99128.88;;;11.65;78.90
58072;BME280;60383;46.626;18.866;2023-04-01T07:30:19;99133.13;;;11.67;79.45
58072;BME280;60383;46.626;18.866;2023-04-01T07:38:05;99138.03;;;11.72;78.26
58072;BME280;60383;46.626;18.866;2023-04-01T07:41:07;99138.03;;;11.72;77.60
58072;BME280;60383;46.626;18.866;2023-04-01T07:43:55;99140.13;;;11.70;77.42
58072;BME280;60383;46.626;18.866;2023-04-01T07:48:55;99141.69;;;11.79;76.94
58072;BME280;60383;46.626;18.866;2023-04-01T07:51:29;99143.19;;;11.82;76.34
58072;BME280;60383;46.626;18.866;2023-04-01T07:57:04;99147.50;;;11.91;75.68
58072;BME280;60383;46.626;18.866;2023-04-01T08:10:35;99136.97;;;12.17;74.52
58072;BME280;60383;46.626;18.866;2023-04-01T08:13:24;99135.56;;;12.27;74.74
58072;BME280;60383;46.626;18.866;2023-04-01T08:21:28;99132.22;;;12.32;74.23
58072;BME280;60383;46.626;18.866;2023-04-01T08:23:59;99128.41;;;12.33;73.90
58072;BME280;60383;46.626;18.866;2023-04-01T08:26:37;99132.25;;;12.39;73.88
58072;BME280;60383;46.626;18.866;2023-04-01T08:29:18;99131.50;;;12.52;72.23
58072;BME280;60383;46.626;18.866;2023-04-01T08:31:59;99119.56;;;12.66;72.06
58072;BME280;60383;46.626;18.866;2023-04-01T08:34:37;99127.13;;;12.64;72.89
58072;BME280;60383;46.626;18.866;2023-04-01T08:37:17;99130.72;;;12.65;72.05
58072;BME280;60383;46.626;18.866;2023-04-01T08:39:48;99131.16;;;12.68;72.20
58072;BME280;60383;46.626;18.866;2023-04-01T08:53:46;99133.84;;;12.97;71.05
58072;BME280;60383;46.626;18.866;2023-04-01T08:58:52;99140.59;;;12.94;71.07
58072;BME280;60383;46.626;18.866;2023-04-01T09:09:32;99144.19;;;13.50;70.52
58072;BME280;60383;46.626;18.866;2023-04-01T09:15:18;99151.00;;;13.54;69.00
58072;BME280;60383;46.626;18.866;2023-04-01T09:20:46;99150.78;;;13.49;67.12
58072;BME280;60383;46.626;18.866;2023-04-01T09:25:53;99154.63;;;13.74;66.67
58072;BME280;60383;46.626;18.866;2023-04-01T09:28:42;99146.19;;;13.96;65.43
58072;BME280;60383;46.626;18.866;2023-04-01T09:45:41;99151.25;;;14.40;60.16
58072;BME280;60383;46.626;18.866;2023-04-01T10:00:59;99147.66;;;14.39;59.00
58072;BME280;60383;46.626;18.866;2023-04-01T10:03:23;99146.38;;;14.42;57.76
58072;BME280;60383;46.626;18.866;2023-04-01T10:20:14;99146.78;;;14.59;57.23
58072;BME280;60383;46.626;18.866;2023-04-01T10:23:02;99146.56;;;14.67;57.93
58072;BME280;60383;46.626;18.866;2023-04-01T10:28:56;99152.69;;;14.69;55.67
58072;BME280;60383;46.626;18.866;2023-04-01T10:36:58;99153.53;;;14.63;57.16
58072;BME280;60383;46.626;18.866;2023-04-01T10:39:52;99154.59;;;14.82;55.20
58072;BME280;60383;46.626;18.866;2023-04-01T10:50:35;99149.72;;;14.77;56.52
58072;BME280;60383;46.626;18.866;2023-04-01T10:53:27;99153.97;;;14.66;57.18
58072;BME280;60383;46.626;18.866;2023-04-01T11:27:05;99141.91;;;15.65;52.12
58072;BME280;60383;46.626;18.866;2023-04-01T11:32:29;99145.13;;;15.55;52.86
58072;BME280;60383;46.626;18.866;2023-04-01T11:41:37;99144.81;;;15.38;52.72
58072;BME280;60383;46.626;18.866;2023-04-01T11:44:18;99140.56;;;15.42;52.49
58072;BME280;60383;46.626;18.866;2023-04-01T11:49:46;99156.19;;;15.16;53.34
58072;BME280;60383;46.626;18.866;2023-04-01T11:52:32;99149.78;;;15.16;53.16
58072;BME280;60383;46.626;18.866;2023-04-01T12:01:25;99159.28;;;14.54;56.75
58072;BME280;60383;46.626;18.866;2023-04-01T12:17:34;99162.44;;;14.85;57.98
58072;BME280;60383;46.626;18.866;2023-04-01T12:26:19;99154.66;;;15.21;56.48
58072;BME280;60383;46.626;18.866;2023-04-01T12:34:27;99158.75;;;15.50;52.86
58072;BME280;60383;46.626;18.866;2023-04-01T12:37:28;99157.59;;;15.32;53.15
58072;BME280;60383;46.626;18.866;2023-04-01T13:23:05;99143.84;;;16.22;49.33
58072;BME280;60383;46.626;18.866;2023-04-01T13:42:16;99139.34;;;16.02;49.11
58072;BME280;60383;46.626;18.866;2023-04-01T13:44:49;99144.69;;;16.22;48.83
58072;BME280;60383;46.626;18.866;2023-04-01T13:52:50;99141.06;;;15.96;47.86
58072;BME280;60383;46.626;18.866;2023-04-01T13:55:35;99136.00;;;15.93;48.69
58072;BME280;60383;46.626;18.866;2023-04-01T14:35:38;99126.19;;;15.97;48.84
58072;BME280;60383;46.626;18.866;2023-04-01T14:41:04;99118.00;;;16.16;48.42
58072;BME280;60383;46.626;18.866;2023-04-01T14:49:43;99120.56;;;16.11;48.96
58072;BME280;60383;46.626;18.866;2023-04-01T14:52:22;99121.03;;;16.08;48.83
58072;BME280;60383;46.626;18.866;2023-04-01T14:54:50;99124.16;;;15.86;49.31
58072;BME280;60383;46.626;18.866;2023-04-01T14:57:31;99127.63;;;15.75;48.53
58072;BME280;60383;46.626;18.866;2023-04-01T15:05:13;99118.81;;;15.91;45.48
58072;BME280;60383;46.626;18.866;2023-04-01T15:08:02;99118.56;;;15.93;45.54
58072;BME280;60383;46.626;18.866;2023-04-01T15:10:45;99115.38;;;15.96;45.42
58072;BME280;60383;46.626;18.866;2023-04-01T15:26:28;99124.22;;;15.41;47.53
58072;BME280;60383;46.626;18.866;2023-04-01T15:29:16;99129.28;;;15.44;46.51
58072;BME280;60383;46.626;18.866;2023-04-01T15:34:42;99133.66;;;15.20;46.85
58072;BME280;60383;46.626;18.866;2023-04-01T15:37:20;99140.47;;;15.17;47.02
58072;BME280;60383;46.626;18.866;2023-04-01T15:43:44;99143.44;;;15.15;48.47
58072;BME280;60383;46.626;18.866;2023-04-01T15:57:09;99149.91;;;15.34;50.47
58072;BME280;60383;46.626;18.866;2023-04-01T15:59:17;99150.97;;;15.40;51.17
58072;BME280;60383;46.626;18.866;2023-04-01T16:02:02;99135.28;;;15.41;50.42
58072;BME280;60383;46.626;18.866;2023-04-01T16:05:09;99142.66;;;15.47;50.98
58072;BME280;60383;46.626;18.866;2023-04-01T16:10:44;99145.53;;;15.59;48.97
58072;BME280;60383;46.626;18.866;2023-04-01T16:13:37;99146.31;;;15.41;49.99
58072;BME280;60383;46.626;18.866;2023-04-01T16:16:35;99148.44;;;15.39;49.72
58072;BME280;60383;46.626;18.866;2023-04-01T16:19:32;99140.47;;;15.56;48.25
58072;BME280;60383;46.626;18.866;2023-04-01T16:22:06;99147.53;;;15.45;48.02
58072;BME280;60383;46.626;18.866;2023-04-01T16:27:29;99149.19;;;15.53;48.16
58072;BME280;60383;46.626;18.866;2023-04-01T16:35:53;99154.38;;;15.74;48.97
58072;BME280;60383;46.626;18.866;2023-04-01T16:41:16;99171.97;;;15.41;49.63
58072;BME280;60383;46.626;18.866;2023-04-01T16:43:52;99169.97;;;15.16;49.39
58072;BME280;60383;46.626;18.866;2023-04-01T16:46:40;99177.25;;;14.91;49.93
58072;BME280;60383;46.626;18.866;2023-04-01T16:52:33;99182.41;;;15.26;49.45
58072;BME280;60383;46.626;18.866;2023-04-01T16:55:01;99183.34;;;15.06;49.65
58072;BME280;60383;46.626;18.866;2023-04-01T16:57:35;99191.88;;;14.91;50.11
58072;BME280;60383;46.626;18.866;2023-04-01T17:00:24;99183.56;;;14.98;50.27
58072;BME280;60383;46.626;18.866;2023-04-01T17:05:52;99193.19;;;14.55;51.95
58072;BME280;60383;46.626;18.866;2023-04-01T17:11:22;99206.94;;;14.35;52.66
58072;BME280;60383;46.626;18.866;2023-04-01T17:17:18;99201.03;;;14.11;53.57
58072;BME280;60383;46.626;18.866;2023-04-01T17:20:26;99205.25;;;14.14;53.63
58072;BME280;60383;46.626;18.866;2023-04-01T17:23:16;99216.69;;;14.04;53.95
58072;BME280;60383;46.626;18.866;2023-04-01T17:26:08;99221.56;;;13.95;54.43
58072;BME280;60383;46.626;18.866;2023-04-01T17:37:06;99240.88;;;13.47;56.27
58072;BME280;60383;46.626;18.866;2023-04-01T17:42:52;99238.44;;;13.30;56.81
58072;BME280;60383;46.626;18.866;2023-04-01T17:45:45;99253.06;;;13.31;56.95
58072;BME280;60383;46.626;18.866;2023-04-01T17:48:45;99244.47;;;13.12;57.57
58072;BME280;60383;46.626;18.866;2023-04-01T17:53:53;99254.59;;;13.05;58.13
58072;BME280;60383;46.626;18.866;2023-04-01T17:56:34;99257.06;;;12.93;58.29
58072;BME280;60383;46.626;18.866;2023-04-01T17:59:31;99268.91;;;12.93;58.40
58072;BME280;60383;46.626;18.866;2023-04-01T18:23:56;99297.66;;;12.41;59.68
58072;BME280;60383;46.626;18.866;2023-04-01T18:26:29;99299.28;;;12.35;60.23
58072;BME280;60383;46.626;18.866;2023-04-01T18:29:04;99295.63;;;12.28;60.40
58072;BME280;60383;46.626;18.866;2023-04-01T18:31:43;99306.94;;;12.18;60.16
58072;BME280;60383;46.626;18.866;2023-04-01T18:37:24;99311.13;;;12.14;60.47
58072;BME280;60383;46.626;18.866;2023-04-01T18:40:03;99300.53;;;12.11;60.74
58072;BME280;60383;46.626;18.866;2023-04-01T18:42:57;99310.56;;;12.04;60.79
58072;BME280;60383;46.626;18.866;2023-04-01T18:45:40;99310.78;;;12.02;60.97
58072;BME280;60383;46.626;18.866;2023-04-01T18:48:14;99324.03;;;11.98;61.43
58072;BME280;60383;46.626;18.866;2023-04-01T18:50:47;99316.53;;;11.92;61.04
58072;BME280;60383;46.626;18.866;2023-04-01T18:53:41;99317.03;;;11.81;61.59
58072;BME280;60383;46.626;18.866;2023-04-01T18:56:15;99312.72;;;11.72;61.67
58072;BME280;60383;46.626;18.866;2023-04-01T19:01:47;99320.00;;;11.64;62.08
58072;BME280;60383;46.626;18.866;2023-04-01T19:04:33;99323.69;;;11.57;62.41
58072;BME280;60383;46.626;18.866;2023-04-01T19:07:44;99326.63;;;11.70;62.47
58072;BME280;60383;46.626;18.866;2023-04-01T19:21:58;99339.78;;;11.45;65.10
58072;BME280;60383;46.626;18.866;2023-04-01T19:24:50;99333.84;;;11.41;65.47
58072;BME280;60383;46.626;18.866;2023-04-01T19:27:29;99336.94;;;11.38;65.82
58072;BME280;60383;46.626;18.866;2023-04-01T19:30:42;99336.69;;;11.33;65.92
58072;BME280;60383;46.626;18.866;2023-04-01T19:33:24;99341.41;;;11.24;66.46
58072;BME280;60383;46.626;18.866;2023-04-01T19:55:55;99357.13;;;10.92;68.51
58072;BME280;60383;46.626;18.866;2023-04-01T19:58:31;99356.28;;;10.92;68.62
58072;BME280;60383;46.626;18.866;2023-04-01T20:01:00;99354.78;;;10.89;69.13
58072;BME280;60383;46.626;18.866;2023-04-01T20:03:42;99356.38;;;10.98;68.82
58072;BME280;60383;46.626;18.866;2023-04-01T20:12:30;99367.03;;;10.78;69.94
58072;BME280;60383;46.626;18.866;2023-04-01T20:15:00;99368.59;;;10.73;70.18
58072;BME280;60383;46.626;18.866;2023-04-01T20:20:19;99361.63;;;10.70;70.72
58072;BME280;60383;46.626;18.866;2023-04-01T20:25:26;99364.25;;;10.63;70.91
58072;BME280;60383;46.626;18.866;2023-04-01T20:44:55;99377.03;;;10.48;70.91
58072;BME280;60383;46.626;18.866;2023-04-01T20:53:04;99389.78;;;10.55;71.33
58072;BME280;60383;46.626;18.866;2023-04-01T21:00:54;99387.09;;;10.47;71.42
58072;BME280;60383;46.626;18.866;2023-04-01T21:16:43;99402.56;;;10.09;72.41
58072;BME280;60383;46.626;18.866;2023-04-01T21:27:37;99408.03;;;10.09;72.04
58072;BME280;60383;46.626;18.866;2023-04-01T21:55:33;99421.34;;;10.12;70.88
58072;BME280;60383;46.626;18.866;2023-04-01T22:14:38;99438.97;;;9.69;72.22
58072;BME280;60383;46.626;18.866;2023-04-01T22:17:32;99433.66;;;9.76;72.25
58072;BME280;60383;46.626;18.866;2023-04-01T22:20:59;99434.69;;;9.67;72.46
58072;BME280;60383;46.626;18.866;2023-04-01T22:23:53;99442.56;;;9.70;72.22
58072;BME280;60383;46.626;18.866;2023-04-01T22:26:38;99448.56;;;9.65;72.26
58072;BME280;60383;46.626;18.866;2023-04-01T22:31:54;99435.78;;;9.57;72.69
58072;BME280;60383;46.626;18.866;2023-04-01T22:42:08;99460.00;;;9.69;71.68
58072;BME280;60383;46.626;18.866;2023-04-01T22:44:56;99464.03;;;9.81;71.19
58072;BME280;60383;46.626;18.866;2023-04-01T22:50:11;99465.44;;;9.77;71.14
58072;BME280;60383;46.626;18.866;2023-04-01T22:52:47;99464.53;;;9.93;70.81
58072;BME280;60383;46.626;18.866;2023-04-01T22:55:30;99462.00;;;9.83;70.51
58072;BME280;60383;46.626;18.866;2023-04-01T22:58:01;99467.59;;;9.90;70.63
58072;BME280;60383;46.626;18.866;2023-04-01T23:00:59;99465.38;;;9.94;70.04
58072;BME280;60383;46.626;18.866;2023-04-01T23:03:53;99470.81;;;10.02;69.50
58072;BME280;60383;46.626;18.866;2023-04-01T23:06:28;99467.22;;;10.01;69.33
58072;BME280;60383;46.626;18.866;2023-04-01T23:09:13;99465.53;;;9.92;70.39
58072;BME280;60383;46.626;18.866;2023-04-01T23:12:02;99469.47;;;9.98;69.79
58072;BME280;60383;46.626;18.866;2023-04-01T23:22:24;99485.69;;;9.99;69.68
58072;BME280;60383;46.626;18.866;2023-04-01T23:38:24;99504.81;;;10.07;70.31
58072;BME280;60383;46.626;18.866;2023-04-01T23:40:52;99510.28;;;10.07;70.33
58072;BME280;60383;46.626;18.866;2023-04-01T23:43:30;99509.38;;;10.15;69.92
58072;BME280;60383;46.626;18.866;2023-04-01T23:45:58;99503.09;;;10.06;70.18
58072;BME280;60383;46.626;18.866;2023-04-01T23:48:45;99505.66;;;10.08;70.25
58072;BME280;60383;46.626;18.866;2023-04-01T23:51:28;99512.53;;;10.04;70.81
58072;BME280;60383;46.626;18.866;2023-04-01T23:56:55;99517.66;;;9.99;70.84
58072;BME280;60383;46.626;18.866;2023-04-01T23:59:29;99506.78;;;9.82;71.61
